Time;durP1;ratioP1;P1;durP2;ratioP2;P2;SDS_P1;SDS_P2;PMS_P1;PMS_P2;Temp;Humidity;BMP_temperature;BMP_pressure;BME280_temperature;BME280_humidity;BME280_pressure;Samples;Min_cycle;Max_cycle;Signal;HPM_P1;HPM_P2
2022/08/22 00:01:11;;;;;;;21.65;4.40;;;;;;;;;;5026033;28;20083;-63
2022/08/22 00:03:57;;;;;;;24.10;4.72;;;;;;;;;;5031359;28;20116;-60
2022/08/22 00:06:26;;;;;;;19.95;5.07;;;;;;;;;;5048347;28;20108;-62
2022/08/22 00:08:54;;;;;;;25.85;4.65;;;;;;;;;;5051655;28;20029;-63
2022/08/22 00:11:45;;;;;;;15.55;3.38;;;;;;;;;;5037522;28;20029;-62
2022/08/22 00:14:30;;;;;;;25.73;3.83;;;;;;;;;;5040828;28;20092;-63
2022/08/22 00:17:05;;;;;;;25.13;4.32;;;;;;;;;;5036746;28;20466;-63
2022/08/22 00:19:47;;;;;;;22.13;4.47;;;;;;;;;;5042793;28;20029;-60
2022/08/22 00:22:29;;;;;;;28.23;4.13;;;;;;;;;;5043248;28;20723;-63
2022/08/22 00:25:16;;;;;;;28.08;4.35;;;;;;;;;;5048493;28;20402;-63
2022/08/22 00:28:03;;;;;;;24.42;3.97;;;;;;;;;;5046258;28;20089;-63
2022/08/22 00:30:34;;;;;;;20.38;4.13;;;;;;;;;;5030942;28;20524;-62
2022/08/22 00:33:09;;;;;;;15.50;3.42;;;;;;;;;;5044137;28;20155;-60
2022/08/22 00:35:38;;;;;;;12.23;3.00;;;;;;;;;;5029822;28;20387;-62
2022/08/22 00:38:05;;;;;;;19.48;3.95;;;;;;;;;;5032274;28;20080;-60
2022/08/22 00:40:52;;;;;;;16.63;3.33;;;;;;;;;;5042015;28;20040;-60
2022/08/22 00:43:22;;;;;;;22.10;3.80;;;;;;;;;;5047705;28;20102;-60
2022/08/22 00:46:05;;;;;;;17.25;3.75;;;;;;;;;;5046952;28;20482;-59
2022/08/22 00:48:50;;;;;;;16.80;3.53;;;;;;;;;;5051485;28;20502;-61
2022/08/22 00:51:35;;;;;;;17.83;3.33;;;;;;;;;;5037383;28;20025;-62
2022/08/22 00:54:12;;;;;;;16.48;3.90;;;;;;;;;;5037045;28;20124;-62
2022/08/22 00:56:42;;;;;;;16.80;3.15;;;;;;;;;;5046412;28;20025;-60
2022/08/22 00:59:23;;;;;;;16.92;4.00;;;;;;;;;;5042664;28;20064;-60
2022/08/22 01:02:00;;;;;;;23.35;4.03;;;;;;;;;;5050865;28;20025;-60
2022/08/22 01:04:42;;;;;;;20.15;3.78;;;;;;;;;;5050064;28;20028;-60
2022/08/22 01:07:12;;;;;;;22.40;3.65;;;;;;;;;;5050690;28;20533;-62
2022/08/22 01:09:51;;;;;;;49.55;5.88;;;;;;;;;;5049482;28;20033;-62
2022/08/22 01:12:31;;;;;;;31.83;4.90;;;;;;;;;;5048151;28;20040;-61
2022/08/22 01:15:00;;;;;;;17.90;5.05;;;;;;;;;;5052656;28;20048;-60
2022/08/22 01:17:43;;;;;;;26.25;5.90;;;;;;;;;;5054804;28;20107;-60
2022/08/22 01:20:28;;;;;;;31.77;7.15;;;;;;;;;;5054911;28;20055;-62
2022/08/22 01:23:13;;;;;;;33.30;8.02;;;;;;;;;;5054264;28;20060;-61
2022/08/22 01:25:50;;;;;;;26.42;7.60;;;;;;;;;;5035210;28;20479;-59
2022/08/22 01:28:30;;;;;;;29.80;7.05;;;;;;;;;;5047867;28;20067;-62
2022/08/22 01:31:00;;;;;;;28.10;6.65;;;;;;;;;;5047257;28;20065;-59
2022/08/22 01:33:34;;;;;;;25.88;6.95;;;;;;;;;;5048304;28;20125;-59
2022/08/22 01:36:19;;;;;;;25.48;5.78;;;;;;;;;;5040912;28;20020;-62
2022/08/22 01:39:01;;;;;;;38.22;6.25;;;;;;;;;;5053811;28;20045;-62
2022/08/22 01:41:32;;;;;;;24.45;5.85;;;;;;;;;;5053351;28;20037;-60
2022/08/22 01:44:20;;;;;;;23.60;6.15;;;;;;;;;;5047546;28;20100;-62
2022/08/22 01:47:07;;;;;;;21.75;5.63;;;;;;;;;;5064893;28;20154;-60
2022/08/22 01:49:34;;;;;;;27.75;6.05;;;;;;;;;;5034507;28;20124;-60
2022/08/22 01:52:19;;;;;;;21.30;5.43;;;;;;;;;;5048847;28;20033;-61
2022/08/22 01:54:48;;;;;;;21.98;5.85;;;;;;;;;;5042555;28;20036;-60
2022/08/22 01:57:16;;;;;;;20.95;5.20;;;;;;;;;;5053998;28;20037;-61
2022/08/22 01:59:46;;;;;;;21.10;5.03;;;;;;;;;;5053697;28;20025;-60
2022/08/22 02:02:31;;;;;;;21.58;5.60;;;;;;;;;;5053377;28;20037;-60
2022/08/22 02:04:58;;;;;;;18.65;5.20;;;;;;;;;;5047937;28;20394;-60
2022/08/22 02:07:51;;;;;;;22.85;5.03;;;;;;;;;;5053386;28;20033;-60
2022/08/22 02:10:41;;;;;;;18.42;5.60;;;;;;;;;;5046832;28;20053;-60
2022/08/22 02:13:28;;;;;;;15.43;4.82;;;;;;;;;;5051977;28;20055;-61
2022/08/22 02:16:14;;;;;;;13.48;3.88;;;;;;;;;;5043233;28;20040;-60
2022/08/22 02:18:54;;;;;;;19.67;5.38;;;;;;;;;;5050940;28;20025;-60
2022/08/22 02:21:32;;;;;;;18.95;4.60;;;;;;;;;;5050522;28;20032;-60
2022/08/22 02:24:16;;;;;;;19.02;4.78;;;;;;;;;;5049836;28;20375;-61
2022/08/22 02:27:09;;;;;;;17.90;4.47;;;;;;;;;;5051402;28;20060;-61
2022/08/22 02:29:48;;;;;;;14.88;4.40;;;;;;;;;;5050960;28;20112;-60
2022/08/22 02:32:30;;;;;;;15.32;4.25;;;;;;;;;;5052910;28;20029;-61
2022/08/22 02:35:10;;;;;;;17.05;4.57;;;;;;;;;;5054127;28;20056;-61
2022/08/22 02:37:59;;;;;;;11.07;4.20;;;;;;;;;;5053899;28;20053;-60
2022/08/22 02:41:05;;;;;;;13.90;4.05;;;;;;;;;;5054220;28;20032;-60
2022/08/22 02:43:58;;;;;;;13.93;4.38;;;;;;;;;;4973398;28;20066;-61
2022/08/22 02:46:25;;;;;;;10.15;3.58;;;;;;;;;;4971788;28;20121;-60
2022/08/22 02:49:09;;;;;;;11.23;3.47;;;;;;;;;;5027248;28;20061;-60
2022/08/22 02:51:48;;;;;;;9.25;3.58;;;;;;;;;;5054067;28;20075;-60
2022/08/22 02:54:23;;;;;;;12.43;3.80;;;;;;;;;;5053749;28;20087;-60
2022/08/22 02:57:10;;;;;;;13.10;3.85;;;;;;;;;;5053348;28;20443;-60
2022/08/22 02:59:57;;;;;;;12.63;4.07;;;;;;;;;;5053847;28;20029;-60
2022/08/22 03:02:46;;;;;;;10.32;3.83;;;;;;;;;;5013358;28;20064;-60
2022/08/22 03:05:19;;;;;;;12.32;4.15;;;;;;;;;;5053647;28;20521;-60
2022/08/22 03:07:50;;;;;;;12.05;3.20;;;;;;;;;;5053757;28;20112;-60
2022/08/22 03:10:23;;;;;;;8.70;3.55;;;;;;;;;;5053632;28;20540;-60
2022/08/22 03:13:02;;;;;;;10.65;3.08;;;;;;;;;;5053593;28;20040;-60
2022/08/22 03:15:33;;;;;;;9.57;3.50;;;;;;;;;;5053617;28;20025;-60
2022/08/22 03:18:03;;;;;;;10.80;3.42;;;;;;;;;;5053653;28;20100;-60
2022/08/22 03:20:36;;;;;;;9.68;3.40;;;;;;;;;;5053450;28;20025;-60
2022/08/22 03:23:08;;;;;;;9.88;3.88;;;;;;;;;;5053709;28;20383;-60
2022/08/22 03:25:44;;;;;;;8.82;3.22;;;;;;;;;;5053575;28;20487;-60
2022/08/22 03:28:11;;;;;;;11.77;4.00;;;;;;;;;;5053320;28;20036;-60
2022/08/22 03:30:39;;;;;;;13.27;3.10;;;;;;;;;;5053222;28;20025;-60
2022/08/22 03:33:18;;;;;;;8.75;2.90;;;;;;;;;;5053226;28;20449;-60
2022/08/22 03:35:45;;;;;;;9.82;3.08;;;;;;;;;;5052324;28;20036;-60
2022/08/22 03:38:12;;;;;;;7.63;2.83;;;;;;;;;;5053006;28;20048;-60
2022/08/22 03:41:05;;;;;;;8.77;2.63;;;;;;;;;;5053100;28;20441;-60
2022/08/22 03:43:43;;;;;;;8.20;2.70;;;;;;;;;;5022875;28;20064;-60
2022/08/22 03:46:26;;;;;;;8.45;3.03;;;;;;;;;;5053069;28;20510;-60
2022/08/22 03:49:12;;;;;;;8.65;2.75;;;;;;;;;;5052941;28;20025;-60
2022/08/22 03:51:57;;;;;;;6.78;2.88;;;;;;;;;;5052869;28;20041;-61
2022/08/22 03:54:44;;;;;;;7.38;2.53;;;;;;;;;;5052662;28;20119;-60
2022/08/22 03:57:29;;;;;;;7.85;2.72;;;;;;;;;;5052899;28;20033;-60
2022/08/22 04:00:14;;;;;;;6.28;2.70;;;;;;;;;;5052825;28;20037;-60
2022/08/22 04:02:48;;;;;;;8.60;2.58;;;;;;;;;;5052742;28;20443;-60
2022/08/22 04:05:33;;;;;;;7.55;2.90;;;;;;;;;;5052561;28;20048;-60
2022/08/22 04:08:18;;;;;;;5.47;2.10;;;;;;;;;;5052677;28;20032;-60
2022/08/22 04:10:50;;;;;;;7.55;2.58;;;;;;;;;;5052686;28;20096;-60
2022/08/22 04:13:37;;;;;;;6.97;2.47;;;;;;;;;;5052501;28;20047;-60
2022/08/22 04:16:04;;;;;;;6.65;2.67;;;;;;;;;;5039124;28;20044;-60
2022/08/22 04:18:49;;;;;;;5.03;2.33;;;;;;;;;;5052605;28;20036;-60
2022/08/22 04:21:19;;;;;;;5.22;2.63;;;;;;;;;;5052573;28;20039;-60
2022/08/22 04:23:46;;;;;;;8.48;2.58;;;;;;;;;;5052426;28;20566;-60
2022/08/22 04:26:17;;;;;;;7.30;2.65;;;;;;;;;;5052409;28;20036;-60
2022/08/22 04:28:48;;;;;;;4.72;2.15;;;;;;;;;;5052404;28;20029;-60
2022/08/22 04:31:18;;;;;;;6.05;2.22;;;;;;;;;;5052441;28;20078;-60
2022/08/22 04:33:45;;;;;;;5.93;2.30;;;;;;;;;;5052342;28;20032;-60
2022/08/22 04:36:16;;;;;;;5.22;2.40;;;;;;;;;;5052388;28;20033;-60
2022/08/22 04:38:43;;;;;;;5.67;2.47;;;;;;;;;;5052292;28;20044;-60
2022/08/22 04:41:20;;;;;;;4.40;2.20;;;;;;;;;;5052434;28;20028;-60
2022/08/22 04:43:51;;;;;;;4.88;2.13;;;;;;;;;;5052207;28;20044;-60
2022/08/22 04:46:33;;;;;;;3.80;1.80;;;;;;;;;;5054382;28;20025;-60
2022/08/22 04:49:00;;;;;;;3.53;1.80;;;;;;;;;;5056483;28;20028;-60
2022/08/22 04:51:35;;;;;;;5.00;2.00;;;;;;;;;;5056301;28;20256;-60
2022/08/22 04:54:05;;;;;;;4.30;1.95;;;;;;;;;;5056190;28;20094;-60
2022/08/22 04:56:44;;;;;;;4.22;1.90;;;;;;;;;;5056467;28;20029;-60
2022/08/22 04:59:12;;;;;;;4.28;2.00;;;;;;;;;;5056293;28;20025;-61
2022/08/22 05:01:39;;;;;;;4.93;2.15;;;;;;;;;;5056237;28;20032;-60
2022/08/22 05:04:08;;;;;;;4.40;1.92;;;;;;;;;;5056079;28;20040;-60
2022/08/22 05:06:38;;;;;;;3.80;1.90;;;;;;;;;;5056144;28;20079;-60
2022/08/22 05:09:11;;;;;;;3.80;1.65;;;;;;;;;;5056300;28;20033;-60
2022/08/22 05:11:40;;;;;;;6.15;1.88;;;;;;;;;;5055986;28;20041;-60
2022/08/22 05:14:27;;;;;;;4.68;2.10;;;;;;;;;;5055741;28;20037;-60
2022/08/22 05:16:56;;;;;;;5.85;2.03;;;;;;;;;;5055975;28;20360;-60
2022/08/22 05:19:30;;;;;;;5.95;1.70;;;;;;;;;;5055870;28;20029;-60
2022/08/22 05:21:57;;;;;;;3.90;2.10;;;;;;;;;;5055862;28;20021;-60
2022/08/22 05:24:26;;;;;;;3.50;1.83;;;;;;;;;;5055693;28;20540;-60
2022/08/22 05:26:55;;;;;;;3.50;1.80;;;;;;;;;;5055814;28;20082;-60
2022/08/22 05:29:23;;;;;;;3.47;1.50;;;;;;;;;;5055608;28;20048;-60
2022/08/22 05:32:10;;;;;;;3.33;1.70;;;;;;;;;;5054569;28;20021;-60
2022/08/22 05:34:39;;;;;;;2.75;1.40;;;;;;;;;;5055379;28;20040;-60
2022/08/22 05:37:14;;;;;;;3.90;1.55;;;;;;;;;;5055447;28;20052;-60
2022/08/22 05:39:45;;;;;;;4.75;1.70;;;;;;;;;;5055419;28;20025;-60
2022/08/22 05:42:24;;;;;;;2.63;1.73;;;;;;;;;;5055486;28;20104;-61
2022/08/22 05:44:51;;;;;;;2.10;1.20;;;;;;;;;;5055258;28;20029;-60
2022/08/22 05:47:23;;;;;;;4.55;1.50;;;;;;;;;;5055325;28;20033;-60
2022/08/22 05:50:02;;;;;;;3.95;1.50;;;;;;;;;;5055538;28;20151;-60
2022/08/22 05:52:42;;;;;;;2.85;1.52;;;;;;;;;;5055373;28;20021;-61
2022/08/22 05:55:21;;;;;;;5.35;1.40;;;;;;;;;;5055163;28;20040;-60
2022/08/22 05:57:51;;;;;;;4.70;1.58;;;;;;;;;;5054259;28;20433;-60
2022/08/22 06:00:20;;;;;;;3.35;1.48;;;;;;;;;;5055207;28;20025;-60
2022/08/22 06:03:19;;;;;;;3.20;1.80;;;;;;;;;;5052843;28;20057;-61
2022/08/22 06:05:47;;;;;;;1.85;1.30;;;;;;;;;;5021630;28;20120;-61
2022/08/22 06:08:20;;;;;;;2.03;1.20;;;;;;;;;;5054944;28;20029;-61
2022/08/22 06:10:49;;;;;;;3.47;1.67;;;;;;;;;;5054924;28;20074;-61
2022/08/22 06:13:31;;;;;;;4.43;1.67;;;;;;;;;;5054747;28;20041;-61
2022/08/22 06:16:05;;;;;;;1.90;1.20;;;;;;;;;;5054767;28;20036;-61
2022/08/22 06:18:32;;;;;;;2.47;1.20;;;;;;;;;;5054817;28;20029;-61
2022/08/22 06:21:00;;;;;;;4.53;1.55;;;;;;;;;;5054783;28;20062;-61
2022/08/22 06:23:50;;;;;;;2.05;1.17;;;;;;;;;;5054665;28;20033;-61
2022/08/22 06:26:18;;;;;;;4.30;1.30;;;;;;;;;;5049252;28;20040;-61
2022/08/22 06:28:47;;;;;;;1.95;1.20;;;;;;;;;;5054387;28;20025;-61
2022/08/22 06:31:20;;;;;;;4.28;1.30;;;;;;;;;;5186115;22;20428;-45
2022/08/22 06:33:46;;;;;;;;;;;;;;;;;;4972504;28;20054;-55
2022/08/22 06:36:31;;;;;;;2.88;1.30;;;;;;;;;;4975782;28;19910;-49
2022/08/22 06:39:01;;;;;;;2.42;1.38;;;;;;;;;;4975746;28;20024;-50
2022/08/22 06:41:29;;;;;;;2.22;1.15;;;;;;;;;;4975432;28;20484;-54
2022/08/22 06:43:57;;;;;;;2.50;1.33;;;;;;;;;;4975586;28;20023;-50
2022/08/22 06:46:27;;;;;;;1.92;1.25;;;;;;;;;;4975572;28;20038;-49
2022/08/22 06:48:55;;;;;;;2.15;1.25;;;;;;;;;;4975620;28;20101;-50
2022/08/22 06:51:24;;;;;;;2.10;1.27;;;;;;;;;;4975452;28;20495;-55
2022/08/22 06:53:53;;;;;;;2.10;1.27;;;;;;;;;;4975348;28;20492;-53
2022/08/22 06:56:28;;;;;;;2.08;1.25;;;;;;;;;;4975369;28;20019;-53
2022/08/22 06:58:57;;;;;;;1.83;1.23;;;;;;;;;;4975278;28;20027;-48
2022/08/22 07:01:25;;;;;;;1.98;1.13;;;;;;;;;;4975220;28;20026;-49
2022/08/22 07:03:54;;;;;;;2.80;1.10;;;;;;;;;;4975215;28;20027;-52
2022/08/22 07:06:34;;;;;;;1.77;1.00;;;;;;;;;;4975196;28;20051;-53
2022/08/22 07:09:01;;;;;;;2.08;1.02;;;;;;;;;;4975014;28;20082;-52
2022/08/22 07:11:45;;;;;;;2.53;0.98;;;;;;;;;;4975039;28;20030;-53
2022/08/22 07:14:15;;;;;;;2.28;1.10;;;;;;;;;;4974917;28;20034;-48
2022/08/22 07:16:44;;;;;;;1.90;1.02;;;;;;;;;;4975007;28;20480;-51
2022/08/22 07:19:23;;;;;;;1.65;0.90;;;;;;;;;;4974939;28;20102;-51
2022/08/22 07:21:49;;;;;;;1.30;0.98;;;;;;;;;;4974777;28;20037;-52
2022/08/22 07:24:20;;;;;;;2.40;1.27;;;;;;;;;;4974788;28;20031;-50
2022/08/22 07:26:53;;;;;;;1.30;0.93;;;;;;;;;;4974748;28;20037;-53
2022/08/22 07:29:27;;;;;;;1.73;0.88;;;;;;;;;;4974784;28;20050;-52
2022/08/22 07:31:53;;;;;;;3.00;0.90;;;;;;;;;;4974869;28;20468;-53
2022/08/22 07:34:34;;;;;;;1.92;1.08;;;;;;;;;;4974299;28;20159;-51
2022/08/22 07:37:23;;;;;;;1.77;0.98;;;;;;;;;;4974864;28;20038;-48
2022/08/22 07:39:50;;;;;;;1.63;0.90;;;;;;;;;;4974538;28;20538;-54
2022/08/22 07:42:18;;;;;;;1.90;0.93;;;;;;;;;;4974460;28;20419;-54
2022/08/22 07:44:45;;;;;;;1.58;0.98;;;;;;;;;;4974407;28;20086;-52
2022/08/22 07:47:19;;;;;;;1.65;0.90;;;;;;;;;;4974360;28;20027;-53
2022/08/22 07:49:50;;;;;;;1.58;1.02;;;;;;;;;;4974439;28;20026;-49
2022/08/22 07:52:18;;;;;;;3.65;1.00;;;;;;;;;;4974284;28;20027;-52
2022/08/22 07:54:56;;;;;;;1.42;0.90;;;;;;;;;;4974164;28;20110;-52
2022/08/22 07:57:29;;;;;;;1.67;0.90;;;;;;;;;;4974190;28;20027;-51
2022/08/22 07:59:58;;;;;;;2.25;0.80;;;;;;;;;;4974249;28;20023;-50
2022/08/22 08:02:26;;;;;;;1.52;0.80;;;;;;;;;;4974184;28;20094;-49
2022/08/22 08:04:54;;;;;;;1.40;0.80;;;;;;;;;;4974134;28;20480;-52
2022/08/22 08:07:23;;;;;;;1.90;0.88;;;;;;;;;;4974112;28;20023;-49
2022/08/22 08:09:52;;;;;;;2.28;0.88;;;;;;;;;;4974112;28;20046;-53
2022/08/22 08:12:21;;;;;;;1.48;0.90;;;;;;;;;;4973827;28;20054;-53
2022/08/22 08:14:52;;;;;;;1.38;0.80;;;;;;;;;;4973940;28;20073;-51
2022/08/22 08:17:23;;;;;;;1.83;0.73;;;;;;;;;;4973950;28;20030;-49
2022/08/22 08:19:51;;;;;;;1.30;0.80;;;;;;;;;;4973772;28;20384;-50
2022/08/22 08:22:20;;;;;;;0.77;0.70;;;;;;;;;;4973913;28;20435;-51
2022/08/22 08:24:48;;;;;;;1.23;0.90;;;;;;;;;;4973974;28;20027;-52
2022/08/22 08:30:10;;;;;;;1.23;0.80;;;;;;;;;;4974184;28;20038;-48
2022/08/22 08:32:38;;;;;;;0.80;0.70;;;;;;;;;;4973556;28;20051;-54
2022/08/22 08:35:28;;;;;;;1.00;0.80;;;;;;;;;;4973810;28;20023;-52
2022/08/22 08:38:03;;;;;;;1.63;0.90;;;;;;;;;;4971213;28;20035;-51
2022/08/22 08:40:30;;;;;;;1.73;0.77;;;;;;;;;;4973746;28;20514;-52
2022/08/22 08:43:33;;;;;;;1.52;0.63;;;;;;;;;;4973742;28;20097;-49
2022/08/22 08:45:59;;;;;;;;;;;;;;;;;;4974379;28;20376;-52
2022/08/22 08:48:29;;;;;;;1.70;0.75;;;;;;;;;;4973858;28;19917;-52
2022/08/22 08:51:16;;;;;;;2.22;0.80;;;;;;;;;;4973575;28;20616;-50
2022/08/22 08:54:08;;;;;;;0.88;0.68;;;;;;;;;;4953372;28;20101;-50
2022/08/22 08:56:40;;;;;;;1.77;0.70;;;;;;;;;;4973587;28;20038;-48
2022/08/22 08:59:25;;;;;;;1.20;0.70;;;;;;;;;;4973666;28;20046;-50
2022/08/22 09:02:01;;;;;;;1.05;0.73;;;;;;;;;;4973729;28;20031;-49
2022/08/22 09:04:28;;;;;;;1.70;0.77;;;;;;;;;;4973631;28;20035;-52
2022/08/22 09:07:15;;;;;;;0.90;0.70;;;;;;;;;;4973640;28;20034;-52
2022/08/22 09:09:48;;;;;;;1.25;0.80;;;;;;;;;;4973555;28;20473;-52
2022/08/22 09:12:33;;;;;;;1.23;0.68;;;;;;;;;;4973376;28;20361;-48
2022/08/22 09:15:12;;;;;;;1.13;0.80;;;;;;;;;;4973341;28;20034;-51
2022/08/22 09:17:38;;;;;;;1.00;0.70;;;;;;;;;;4973361;28;20023;-54
2022/08/22 09:20:21;;;;;;;1.65;0.70;;;;;;;;;;4973503;28;20473;-50
2022/08/22 09:23:09;;;;;;;1.17;0.70;;;;;;;;;;4973595;28;20435;-53
2022/08/22 09:25:38;;;;;;;1.08;0.70;;;;;;;;;;4973447;28;20723;-50
2022/08/22 09:28:09;;;;;;;1.27;0.70;;;;;;;;;;4973435;28;20027;-51
2022/08/22 09:30:53;;;;;;;1.50;0.75;;;;;;;;;;4973283;28;20097;-49
2022/08/22 09:33:21;;;;;;;0.95;0.50;;;;;;;;;;4974914;28;20137;-49
2022/08/22 09:35:57;;;;;;;1.35;0.60;;;;;;;;;;4976836;28;20023;-54
2022/08/22 09:38:49;;;;;;;1.88;0.70;;;;;;;;;;4976786;28;20492;-50
2022/08/22 09:41:34;;;;;;;1.30;0.60;;;;;;;;;;4976567;28;20500;-50
2022/08/22 09:44:19;;;;;;;0.82;0.52;;;;;;;;;;4976879;28;20022;-52
2022/08/22 09:47:06;;;;;;;1.13;0.60;;;;;;;;;;4976675;28;20027;-53
2022/08/22 09:49:33;;;;;;;1.10;0.60;;;;;;;;;;4976230;28;20031;-50
2022/08/22 09:52:05;;;;;;;0.98;0.60;;;;;;;;;;4976348;28;20480;-51
2022/08/22 09:54:32;;;;;;;1.02;0.68;;;;;;;;;;4976442;28;20066;-56
2022/08/22 09:57:02;;;;;;;0.90;0.60;;;;;;;;;;4976408;28;20110;-50
2022/08/22 09:59:45;;;;;;;1.60;0.60;;;;;;;;;;4976424;28;20026;-54
2022/08/22 10:02:20;;;;;;;0.77;0.47;;;;;;;;;;4976314;28;20027;-49
2022/08/22 10:05:05;;;;;;;1.02;0.70;;;;;;;;;;4976360;28;20148;-50
2022/08/22 10:07:55;;;;;;;0.65;0.60;;;;;;;;;;4976214;28;20047;-49
2022/08/22 10:10:22;;;;;;;1.20;0.55;;;;;;;;;;4976289;28;20037;-50
2022/08/22 10:12:51;;;;;;;1.08;0.85;;;;;;;;;;4976123;28;20038;-53
2022/08/22 10:15:23;;;;;;;0.95;0.60;;;;;;;;;;4975992;28;20031;-50
2022/08/22 10:18:01;;;;;;;0.55;0.50;;;;;;;;;;4976043;28;20019;-50
2022/08/22 10:20:31;;;;;;;1.00;0.60;;;;;;;;;;4976106;28;20022;-53
2022/08/22 10:23:04;;;;;;;0.70;0.50;;;;;;;;;;4975986;28;20046;-53
2022/08/22 10:25:38;;;;;;;0.90;0.60;;;;;;;;;;4975997;28;20027;-53
2022/08/22 10:28:05;;;;;;;1.00;0.50;;;;;;;;;;4975982;28;20492;-50
2022/08/22 10:30:41;;;;;;;1.40;0.60;;;;;;;;;;4975903;28;20050;-55
2022/08/22 10:33:29;;;;;;;1.08;0.70;;;;;;;;;;4975492;28;20061;-51
2022/08/22 10:36:06;;;;;;;0.73;0.50;;;;;;;;;;4975688;28;20077;-50
2022/08/22 10:38:53;;;;;;;1.15;0.60;;;;;;;;;;4975797;28;20026;-50
2022/08/22 10:41:26;;;;;;;0.63;0.60;;;;;;;;;;4975635;28;20026;-52
2022/08/22 10:43:58;;;;;;;0.75;0.60;;;;;;;;;;4975337;28;20039;-52
2022/08/22 10:46:30;;;;;;;0.60;0.50;;;;;;;;;;4975642;28;20061;-49
2022/08/22 10:48:59;;;;;;;1.08;0.68;;;;;;;;;;4975569;28;20078;-48
2022/08/22 10:51:39;;;;;;;0.95;0.65;;;;;;;;;;4975366;28;20026;-50
2022/08/22 10:54:24;;;;;;;1.52;0.63;;;;;;;;;;4975326;28;20066;-53
2022/08/22 10:56:56;;;;;;;1.13;0.80;;;;;;;;;;4975373;28;20522;-51
2022/08/22 10:59:29;;;;;;;0.70;0.70;;;;;;;;;;4975355;28;20074;-52
2022/08/22 11:01:56;;;;;;;0.77;0.50;;;;;;;;;;4975174;28;20027;-52
2022/08/22 11:04:42;;;;;;;0.95;0.60;;;;;;;;;;4975296;28;20050;-51
2022/08/22 11:07:35;;;;;;;0.65;0.60;;;;;;;;;;4975235;28;20031;-53
2022/08/22 11:10:09;;;;;;;0.68;0.50;;;;;;;;;;4974956;28;20054;-54
2022/08/22 11:12:39;;;;;;;0.70;0.55;;;;;;;;;;4973728;28;20039;-53
2022/08/22 11:15:40;;;;;;;0.40;0.40;;;;;;;;;;4974898;28;20074;-48
2022/08/22 11:18:08;;;;;;;0.90;0.52;;;;;;;;;;4974379;28;20110;-54
2022/08/22 11:20:58;;;;;;;1.27;0.47;;;;;;;;;;4973777;28;20085;-54
2022/08/22 11:23:34;;;;;;;2.75;0.70;;;;;;;;;;4936983;28;20058;-49
2022/08/22 11:26:19;;;;;;;2.58;0.93;;;;;;;;;;4965846;28;20420;-56
2022/08/22 11:28:53;;;;;;;1.92;0.80;;;;;;;;;;4973302;28;20043;-53
2022/08/22 11:31:23;;;;;;;1.20;0.70;;;;;;;;;;4973741;28;20035;-52
2022/08/22 11:33:57;;;;;;;2.50;0.70;;;;;;;;;;4972889;28;20070;-56
2022/08/22 11:36:33;;;;;;;2.58;0.75;;;;;;;;;;4973173;28;20027;-49
2022/08/22 11:39:04;;;;;;;3.65;0.90;;;;;;;;;;4971677;28;20419;-49
2022/08/22 11:41:45;;;;;;;3.13;0.95;;;;;;;;;;4974582;28;20042;-47
2022/08/22 11:44:16;;;;;;;2.75;0.90;;;;;;;;;;4974518;28;20034;-53
2022/08/22 11:46:44;;;;;;;2.13;0.93;;;;;;;;;;4974479;28;20484;-50
2022/08/22 11:49:30;;;;;;;3.97;1.17;;;;;;;;;;4974484;28;20031;-51
2022/08/22 11:52:17;;;;;;;2.25;1.02;;;;;;;;;;4973497;28;20113;-48
2022/08/22 11:55:02;;;;;;;1.20;0.88;;;;;;;;;;4954361;28;20043;-49
2022/08/22 11:57:29;;;;;;;3.15;1.20;;;;;;;;;;4954863;28;20051;-50
2022/08/22 12:00:15;;;;;;;2.72;0.93;;;;;;;;;;4955045;28;20497;-51
2022/08/22 12:02:45;;;;;;;2.05;1.08;;;;;;;;;;4960486;28;20043;-49
2022/08/22 12:05:17;;;;;;;3.95;1.40;;;;;;;;;;4972623;28;20118;-52
2022/08/22 12:07:55;;;;;;;3.67;0.95;;;;;;;;;;4972746;28;20575;-52
2022/08/22 12:10:28;;;;;;;3.78;1.40;;;;;;;;;;4972726;28;20027;-53
2022/08/22 12:13:17;;;;;;;7.18;1.70;;;;;;;;;;4972565;28;20035;-51
2022/08/22 12:16:13;;;;;;;3.38;1.55;;;;;;;;;;4972683;28;20038;-54
2022/08/22 12:18:45;;;;;;;5.80;1.80;;;;;;;;;;4965900;28;20512;-54
2022/08/22 12:21:18;;;;;;;3.83;1.60;;;;;;;;;;4971958;28;20074;-54
2022/08/22 12:24:01;;;;;;;2.83;1.45;;;;;;;;;;4970983;28;20085;-55
2022/08/22 12:26:28;;;;;;;3.30;1.40;;;;;;;;;;4972467;28;20039;-56
2022/08/22 12:28:54;;;;;;;4.45;1.50;;;;;;;;;;4973372;28;20030;-52
2022/08/22 12:31:41;;;;;;;3.33;1.70;;;;;;;;;;4973292;28;20037;-54
2022/08/22 12:34:32;;;;;;;3.55;1.67;;;;;;;;;;4969602;28;20058;-50
2022/08/22 12:37:12;;;;;;;4.07;1.63;;;;;;;;;;4968259;28;20042;-53
2022/08/22 12:39:49;;;;;;;7.70;1.90;;;;;;;;;;4971424;28;20118;-49
2022/08/22 12:42:34;;;;;;;44.45;4.28;;;;;;;;;;4966791;28;20739;-58
2022/08/22 12:45:12;;;;;;;17.02;2.70;;;;;;;;;;4972112;28;20019;-55
2022/08/22 12:47:55;;;;;;;4.60;2.08;;;;;;;;;;4968215;28;20119;-52
2022/08/22 12:50:36;;;;;;;8.77;2.60;;;;;;;;;;4970709;28;20026;-49
2022/08/22 12:53:17;;;;;;;10.77;2.55;;;;;;;;;;4967047;28;20022;-44
2022/08/22 12:55:47;;;;;;;6.93;2.30;;;;;;;;;;4968410;28;20058;-48
2022/08/22 12:58:32;;;;;;;9.50;2.67;;;;;;;;;;4972619;28;20059;-51
2022/08/22 13:01:02;;;;;;;6.05;2.42;;;;;;;;;;4970591;28;20050;-51
2022/08/22 13:03:34;;;;;;;8.07;2.90;;;;;;;;;;4971706;28;20046;-50
2022/08/22 13:06:06;;;;;;;8.15;2.67;;;;;;;;;;4968037;28;20500;-48
2022/08/22 13:08:39;;;;;;;7.68;2.67;;;;;;;;;;4975958;28;20046;-53
2022/08/22 13:11:11;;;;;;;5.95;3.17;;;;;;;;;;4976018;28;20031;-56
2022/08/22 13:13:41;;;;;;;6.93;3.13;;;;;;;;;;4971073;28;20045;-49
2022/08/22 13:16:14;;;;;;;8.82;3.63;;;;;;;;;;4975526;28;20472;-52
2022/08/22 13:18:56;;;;;;;6.72;3.28;;;;;;;;;;4974189;28;20039;-54
2022/08/22 13:21:33;;;;;;;6.78;3.20;;;;;;;;;;4973495;28;20023;-54
2022/08/22 13:24:09;;;;;;;7.93;3.25;;;;;;;;;;4974164;28;20031;-47
2022/08/22 13:26:37;;;;;;;11.57;4.10;;;;;;;;;;4975712;28;20081;-55
2022/08/22 13:29:06;;;;;;;9.52;3.92;;;;;;;;;;4976170;28;20037;-47
2022/08/22 13:31:35;;;;;;;12.20;3.97;;;;;;;;;;4975258;28;20039;-47
2022/08/22 13:34:02;;;;;;;10.95;3.53;;;;;;;;;;4975845;28;20074;-49
2022/08/22 13:36:31;;;;;;;10.20;3.45;;;;;;;;;;4974564;28;20057;-48
2022/08/22 13:39:18;;;;;;;11.20;3.90;;;;;;;;;;4976074;28;20123;-56
2022/08/22 13:41:52;;;;;;;15.95;4.35;;;;;;;;;;4964574;28;20082;-46
2022/08/22 13:44:26;;;;;;;17.45;3.97;;;;;;;;;;4974301;28;20030;-47
2022/08/22 13:46:53;;;;;;;12.70;3.83;;;;;;;;;;4972645;28;20498;-46
2022/08/22 13:49:31;;;;;;;7.38;3.17;;;;;;;;;;4975560;28;20033;-50
2022/08/22 13:52:04;;;;;;;9.30;4.10;;;;;;;;;;4970619;28;20046;-46
2022/08/22 13:54:43;;;;;;;9.23;3.95;;;;;;;;;;4975584;28;20397;-56
2022/08/22 13:57:17;;;;;;;12.77;4.30;;;;;;;;;;4974899;28;20456;-55
2022/08/22 13:59:47;;;;;;;13.93;3.83;;;;;;;;;;4975001;28;20476;-56
2022/08/22 14:02:23;;;;;;;11.18;4.25;;;;;;;;;;4972799;28;20027;-49
2022/08/22 14:04:52;;;;;;;14.80;4.60;;;;;;;;;;4972911;28;20031;-55
2022/08/22 14:07:29;;;;;;;16.38;4.78;;;;;;;;;;4989085;28;20495;-49
2022/08/22 14:10:07;;;;;;;13.40;4.43;;;;;;;;;;4973738;28;20074;-54
2022/08/22 14:12:36;;;;;;;14.90;4.60;;;;;;;;;;4971913;28;20081;-47
2022/08/22 14:15:06;;;;;;;11.40;4.50;;;;;;;;;;4975166;28;20034;-55
2022/08/22 14:17:41;;;;;;;9.10;4.03;;;;;;;;;;4970313;28;20136;-59
2022/08/22 14:20:22;;;;;;;9.13;4.20;;;;;;;;;;4974723;28;20059;-55
2022/08/22 14:23:15;;;;;;;10.63;4.38;;;;;;;;;;4974611;28;20081;-56
2022/08/22 14:25:43;;;;;;;12.52;4.82;;;;;;;;;;4965394;28;20058;-52
2022/08/22 14:28:29;;;;;;;15.45;4.35;;;;;;;;;;4975282;28;20027;-55
2022/08/22 14:30:56;;;;;;;15.85;4.53;;;;;;;;;;4975414;28;20489;-51
2022/08/22 14:33:25;;;;;;;17.40;4.70;;;;;;;;;;4974368;28;20093;-54
2022/08/22 14:35:57;;;;;;;14.75;5.00;;;;;;;;;;4990464;28;20092;-56
2022/08/22 14:38:34;;;;;;;16.52;5.10;;;;;;;;;;4975504;28;20094;-58
2022/08/22 14:41:14;;;;;;;15.65;5.05;;;;;;;;;;4974660;28;20504;-59
2022/08/22 14:43:56;;;;;;;10.52;4.75;;;;;;;;;;4975245;28;20035;-55
2022/08/22 14:46:26;;;;;;;15.90;4.57;;;;;;;;;;4975384;28;20070;-58
2022/08/22 14:48:56;;;;;;;12.05;4.97;;;;;;;;;;4975318;28;20085;-55
2022/08/22 14:51:25;;;;;;;12.35;5.30;;;;;;;;;;4973450;28;20058;-58
2022/08/22 14:53:52;;;;;;;18.05;6.05;;;;;;;;;;4974952;28;20054;-58
2022/08/22 14:56:22;;;;;;;10.13;5.10;;;;;;;;;;4974445;28;20054;-55
2022/08/22 14:59:09;;;;;;;14.90;5.53;;;;;;;;;;4964116;28;20026;-48
2022/08/22 15:01:52;;;;;;;21.00;6.30;;;;;;;;;;4962928;28;20539;-52
2022/08/22 15:04:23;;;;;;;21.42;6.55;;;;;;;;;;4965488;28;20063;-57
2022/08/22 15:06:55;;;;;;;28.67;6.72;;;;;;;;;;4974528;28;20101;-59
2022/08/22 15:09:28;;;;;;;27.20;8.15;;;;;;;;;;4974169;28;20027;-54
2022/08/22 15:11:55;;;;;;;23.65;8.13;;;;;;;;;;4971797;28;20070;-54
2022/08/22 15:14:37;;;;;;;24.50;7.03;;;;;;;;;;4974074;28;20054;-52
2022/08/22 15:17:06;;;;;;;23.77;7.63;;;;;;;;;;4972749;28;20035;-57
2022/08/22 15:19:34;;;;;;;21.52;7.55;;;;;;;;;;4972677;28;20473;-57
2022/08/22 15:22:16;;;;;;;28.23;9.43;;;;;;;;;;4973248;28;20038;-52
2022/08/22 15:24:43;;;;;;;;;;;;;;;;;;4975156;28;20097;-52
2022/08/22 15:27:10;;;;;;;32.80;9.68;;;;;;;;;;4974803;28;19945;-53
2022/08/22 15:29:48;;;;;;;27.45;9.65;;;;;;;;;;4971207;28;20625;-61
2022/08/22 15:32:19;;;;;;;36.10;11.00;;;;;;;;;;4971452;28;20509;-53